createdAt,value
2018-05-18T00:01:30.607Z,73.03
2018-05-18T00:04:13.546Z,75.33
2018-05-18T00:06:49.163Z,82.07
2018-05-18T00:09:24.032Z,91.07
2018-05-18T00:11:59.700Z,87.17
2018-05-18T00:14:35.628Z,68.73
2018-05-18T00:17:16.734Z,80.33
2018-05-18T00:19:54.420Z,81.77
2018-05-18T00:22:30.275Z,97.27
2018-05-18T00:25:03.788Z,93.97
2018-05-18T00:27:37.443Z,90.77
2018-05-18T00:30:11.121Z,96.30
2018-05-18T00:32:44.766Z,98.90
2018-05-18T00:35:18.444Z,109.03
2018-05-18T00:37:52.088Z,112.07
2018-05-18T00:40:25.765Z,95.00
2018-05-18T00:42:59.408Z,101.63
2018-05-18T00:45:33.856Z,126.03
2018-05-18T00:48:07.495Z,96.60
2018-05-18T00:50:41.174Z,98.40
2018-05-18T00:53:14.816Z,94.30
2018-05-18T00:55:48.495Z,108.07
2018-05-18T00:58:22.134Z,100.87
2018-05-18T01:00:57.561Z,122.53
2018-05-18T01:03:31.212Z,128.00
2018-05-18T01:06:05.544Z,105.23
2018-05-18T01:08:40.171Z,113.13
2018-05-18T01:11:14.851Z,114.37
2018-05-18T01:13:48.499Z,105.93
2018-05-18T01:16:23.187Z,115.87
2018-05-18T01:18:56.838Z,121.00
2018-05-18T01:21:30.524Z,121.53
2018-05-18T01:24:04.178Z,124.50
2018-05-18T01:26:38.890Z,77.33
2018-05-18T01:29:14.261Z,100.80
2018-05-18T01:31:48.915Z,87.93
2018-05-18T01:34:22.560Z,104.97
2018-05-18T01:36:56.998Z,92.93
2018-05-18T01:39:31.607Z,99.73
2018-05-18T01:42:06.065Z,98.80
2018-05-18T02:02:29.605Z,87.77
2018-05-18T02:05:03.279Z,95.77
2018-05-18T02:07:37.895Z,71.97
2018-05-18T02:10:11.569Z,85.73
2018-05-18T02:12:45.224Z,94.00
2018-05-18T02:15:19.674Z,85.37
2018-05-18T02:17:53.318Z,78.23
2018-05-18T02:20:27.011Z,71.17
2018-05-18T02:23:00.657Z,99.80
2018-05-18T02:25:34.357Z,61.17
2018-05-18T02:28:08.005Z,92.67
2018-05-18T02:30:41.696Z,73.40
2018-05-18T02:33:15.366Z,79.67
2018-05-18T02:35:49.045Z,78.40
2018-05-18T02:38:23.458Z,79.53
2018-05-18T02:40:57.916Z,74.57
2018-05-18T02:43:31.551Z,74.57
2018-05-18T02:46:04.908Z,73.43
2018-05-18T02:48:38.554Z,66.43
2018-05-18T02:51:12.244Z,68.00
2018-05-18T02:53:45.895Z,63.17
2018-05-18T02:56:19.251Z,63.90
2018-05-18T02:58:52.902Z,70.67
2018-05-18T03:01:27.562Z,73.67
2018-05-18T03:04:10.229Z,69.80
2018-05-18T03:06:45.382Z,57.57
2018-05-18T03:09:19.098Z,67.50
2018-05-18T03:11:52.787Z,57.67
2018-05-18T03:14:27.392Z,73.20
2018-05-18T03:17:01.076Z,69.93
2018-05-18T03:19:35.481Z,78.53
2018-05-18T03:22:09.180Z,70.53
2018-05-18T03:24:42.820Z,63.30
2018-05-18T03:27:16.497Z,56.13
2018-05-18T03:29:50.905Z,45.40
2018-05-18T03:32:24.586Z,54.13
2018-05-18T03:34:58.237Z,47.17
2018-05-18T03:37:33.378Z,52.03
2018-05-18T03:40:07.026Z,48.93
2018-05-18T03:42:40.709Z,59.83
2018-05-18T03:45:14.584Z,54.93
2018-05-18T03:47:48.265Z,42.93
2018-05-18T03:50:22.705Z,45.37
2018-05-18T03:52:56.388Z,42.23
2018-05-18T03:55:30.802Z,42.80
2018-05-18T03:58:05.256Z,42.07
2018-05-18T04:00:38.899Z,38.97
2018-05-18T04:03:23.773Z,43.90
2018-05-18T04:06:08.505Z,47.90
2018-05-18T04:08:52.223Z,50.37
2018-05-18T04:11:25.881Z,42.57
2018-05-18T04:14:01.305Z,39.13
2018-05-18T04:16:34.951Z,34.67
2018-05-18T04:19:09.598Z,35.30
2018-05-18T04:21:44.936Z,32.03
2018-05-18T04:24:19.591Z,36.23
2018-05-18T04:26:53.239Z,25.07
2018-05-18T04:29:27.927Z,35.73
2018-05-18T04:32:01.579Z,28.43
2018-05-18T04:34:36.252Z,24.67
2018-05-18T04:37:09.895Z,28.40
2018-05-18T04:39:43.575Z,25.97
2018-05-18T04:42:17.852Z,24.60
2018-05-18T04:44:52.109Z,25.00
2018-05-18T04:47:26.317Z,25.75
2018-05-18T04:50:00.561Z,20.73
2018-05-18T04:52:35.536Z,24.77
2018-05-18T04:55:09.789Z,23.40
2018-05-18T04:57:44.956Z,22.20
2018-05-18T05:00:19.967Z,28.87
2018-05-18T05:02:54.176Z,22.30
2018-05-18T05:05:28.437Z,24.85
2018-05-18T05:08:02.700Z,27.75
2018-05-18T05:10:36.912Z,29.85
2018-05-18T05:13:11.151Z,34.10
2018-05-18T05:15:46.125Z,35.97
2018-05-18T05:18:20.413Z,27.62
2018-05-18T05:20:54.623Z,25.10
2018-05-18T05:23:29.637Z,30.95
2018-05-18T05:26:03.860Z,30.80
2018-05-18T05:28:38.881Z,24.17
2018-05-18T05:31:14.061Z,27.15
2018-05-18T05:33:49.293Z,29.70
2018-05-18T05:36:23.496Z,26.70
2018-05-18T05:38:59.481Z,32.22
2018-05-18T05:41:33.692Z,29.15
2018-05-18T05:44:07.928Z,27.98
2018-05-18T05:46:42.131Z,21.60
2018-05-18T05:49:16.388Z,23.50
2018-05-18T05:51:51.370Z,24.12
2018-05-18T05:54:25.659Z,24.25
2018-05-18T05:56:59.704Z,23.62
2018-05-18T05:59:33.951Z,24.92
2018-05-18T06:02:08.176Z,26.55
2018-05-18T06:04:44.171Z,20.80
2018-05-18T06:07:19.359Z,32.50
2018-05-18T06:09:53.599Z,31.75
2018-05-18T06:12:27.816Z,28.90
2018-05-18T06:15:02.061Z,21.67
2018-05-18T06:17:36.265Z,28.60
2018-05-18T06:20:10.533Z,24.55
2018-05-18T06:22:45.527Z,22.83
2018-05-18T06:25:19.790Z,27.52
2018-05-18T06:27:54.821Z,21.50
2018-05-18T06:30:29.843Z,26.48
2018-05-18T06:33:04.071Z,25.33
2018-05-18T06:35:39.085Z,31.15
2018-05-18T06:38:13.312Z,23.70
2018-05-18T06:40:48.327Z,22.20
2018-05-18T06:43:23.493Z,26.02
2018-05-18T06:45:58.519Z,26.25
2018-05-18T06:48:34.459Z,25.15
2018-05-18T06:51:08.713Z,25.20
2018-05-18T06:53:43.932Z,28.48
2018-05-18T06:56:18.936Z,27.73
2018-05-18T06:58:54.118Z,26.27
2018-05-18T07:01:29.322Z,31.33
2018-05-18T07:04:04.383Z,22.98
2018-05-18T07:06:38.776Z,23.87
2018-05-18T07:09:14.741Z,23.62
2018-05-18T07:11:50.743Z,27.67
2018-05-18T07:14:24.942Z,26.60
2018-05-18T07:16:59.208Z,20.17
2018-05-18T07:19:33.421Z,25.23
2018-05-18T07:22:07.667Z,20.05
2018-05-18T07:24:41.888Z,22.83
2018-05-18T07:27:16.137Z,27.65
2018-05-18T07:29:50.339Z,19.73
2018-05-18T07:32:24.581Z,21.60
2018-05-18T07:34:58.821Z,22.85
2018-05-18T07:37:33.839Z,20.37
2018-05-18T07:40:09.032Z,27.05
2018-05-18T07:42:44.048Z,20.98
2018-05-18T07:45:19.031Z,20.95
2018-05-18T07:47:54.247Z,19.52
2018-05-18T07:50:28.462Z,19.05
2018-05-18T07:53:02.716Z,23.42
2018-05-18T07:55:37.699Z,23.90
2018-05-18T07:58:11.944Z,28.15
2018-05-18T08:00:46.152Z,17.08
2018-05-18T08:03:20.400Z,20.58
2018-05-18T08:05:55.380Z,19.27
2018-05-18T08:08:29.619Z,19.00
2018-05-18T08:11:03.825Z,22.23
2018-05-18T08:13:38.073Z,16.45
2018-05-18T08:16:13.071Z,20.40
2018-05-18T08:18:47.334Z,21.00
2018-05-18T08:21:21.552Z,26.02
2018-05-18T08:23:55.812Z,23.60
2018-05-18T08:26:33.239Z,19.98
2018-05-18T08:29:18.960Z,26.85
2018-05-18T08:31:53.184Z,21.42
2018-05-18T08:34:28.416Z,23.00
2018-05-18T08:37:02.635Z,21.10
2018-05-18T08:39:36.925Z,22.85
2018-05-18T08:47:55.528Z,25.45
2018-05-18T08:53:34.935Z,22.90
2018-05-18T08:58:54.029Z,22.23
2018-05-18T09:01:30.005Z,29.83
2018-05-18T09:04:04.228Z,18.40
2018-05-18T09:06:38.477Z,21.58
2018-05-18T09:09:12.688Z,27.15
2018-05-18T09:11:46.944Z,24.85
2018-05-18T09:14:21.159Z,21.90
2018-05-18T09:16:56.401Z,26.92
2018-05-18T09:19:31.621Z,24.02
2018-05-18T09:22:05.884Z,19.15
2018-05-18T09:24:40.132Z,21.85
2018-05-18T09:27:15.365Z,23.85
2018-05-18T09:29:49.585Z,22.25
2018-05-18T09:32:25.575Z,21.98
2018-05-18T09:34:59.791Z,24.27
2018-05-18T09:37:34.058Z,25.02
2018-05-18T09:40:09.285Z,20.60
2018-05-18T09:42:44.508Z,22.10
2018-05-18T09:45:19.693Z,22.75
2018-05-18T09:47:54.736Z,25.50
2018-05-18T09:50:28.956Z,27.10
2018-05-18T09:53:03.973Z,32.17
2018-05-18T09:55:39.137Z,27.20
2018-05-18T09:58:13.404Z,27.37
2018-05-18T10:00:47.692Z,22.42
2018-05-18T10:03:22.079Z,27.00
2018-05-18T10:05:56.293Z,24.77
2018-05-18T10:08:30.544Z,22.08
2018-05-18T10:11:04.752Z,26.23
2018-05-18T10:13:40.049Z,25.05
2018-05-18T10:16:14.300Z,24.30
2018-05-18T10:18:48.512Z,30.42
2018-05-18T10:21:23.750Z,23.90
2018-05-18T10:23:57.972Z,23.38
2018-05-18T10:26:32.241Z,19.92
2018-05-18T10:29:07.245Z,24.58
2018-05-18T10:31:42.479Z,23.12
2018-05-18T10:34:16.717Z,18.50
2018-05-18T10:36:51.935Z,27.70
2018-05-18T10:39:26.161Z,23.55
2018-05-18T10:42:02.172Z,18.87
2018-05-18T10:44:37.352Z,22.35
2018-05-18T10:47:12.373Z,21.33
2018-05-18T10:49:46.599Z,22.17
2018-05-18T10:52:21.620Z,23.42
2018-05-18T10:54:56.812Z,16.55
2018-05-18T10:57:32.043Z,16.75
2018-05-18T11:00:06.270Z,14.40
2018-05-18T11:02:41.544Z,17.75
2018-05-18T11:05:15.804Z,15.32
2018-05-18T11:07:50.218Z,17.10
2018-05-18T11:10:24.439Z,16.87
2018-05-18T11:12:58.701Z,14.63
2018-05-18T11:15:32.918Z,14.32
2018-05-18T11:18:08.153Z,16.48
2018-05-18T11:20:43.378Z,15.35
2018-05-18T11:23:17.639Z,16.02
2018-05-18T11:25:52.624Z,16.55
2018-05-18T11:28:26.906Z,17.37
2018-05-18T11:31:01.128Z,19.67
2018-05-18T11:33:35.388Z,22.83
2018-05-18T11:36:10.666Z,16.05
2018-05-18T11:38:44.941Z,21.60
2018-05-18T11:41:19.163Z,17.25
2018-05-18T11:43:54.418Z,20.50
2018-05-18T11:46:29.480Z,18.02
2018-05-18T11:49:03.797Z,18.20
2018-05-18T11:54:28.426Z,20.80
2018-05-18T11:57:12.561Z,21.37
2018-05-18T11:59:46.804Z,20.55
2018-05-18T12:02:20.892Z,22.67
2018-05-18T12:04:56.152Z,18.75
2018-05-18T12:07:39.414Z,19.02
2018-05-18T12:10:13.753Z,21.00
2018-05-18T12:12:54.586Z,20.17
2018-05-18T12:15:28.845Z,27.90
2018-05-18T12:18:03.164Z,23.83
2018-05-18T12:20:38.153Z,18.67
2018-05-18T12:23:13.181Z,17.45
2018-05-18T12:25:48.160Z,21.62
2018-05-18T12:28:22.422Z,19.15
2018-05-18T12:30:56.640Z,22.58
2018-05-18T12:33:30.911Z,21.08
2018-05-18T12:36:05.132Z,23.10
2018-05-18T12:38:40.369Z,21.00
2018-05-18T12:41:14.585Z,19.00
2018-05-18T12:43:49.808Z,26.05
2018-05-18T12:46:26.734Z,17.67
2018-05-18T12:49:00.996Z,24.40
2018-05-18T12:51:36.217Z,19.20
2018-05-18T12:54:15.232Z,22.35
2018-05-18T12:59:48.559Z,22.42
2018-05-18T13:02:30.208Z,21.12
2018-05-18T13:05:09.405Z,24.20
2018-05-18T13:07:46.985Z,20.73
2018-05-18T13:10:30.415Z,18.30
2018-05-18T13:13:10.329Z,23.42
2018-05-18T13:15:46.492Z,19.95
2018-05-18T13:18:30.874Z,22.33
2018-05-18T13:21:11.772Z,19.37
2018-05-18T13:23:50.835Z,19.90
2018-05-18T13:29:11.153Z,21.87
2018-05-18T13:31:50.051Z,23.00
2018-05-18T13:34:25.669Z,16.05
2018-05-18T13:37:00.100Z,19.08
2018-05-18T13:39:35.292Z,18.85
2018-05-18T13:42:09.239Z,21.60
2018-05-18T13:44:43.558Z,19.25
2018-05-18T13:47:17.937Z,27.00
2018-05-18T13:49:52.165Z,22.85
2018-05-18T13:52:26.428Z,19.05
2018-05-18T13:55:00.643Z,23.65
2018-05-18T13:57:35.671Z,20.48
2018-05-18T14:00:09.894Z,19.10
2018-05-18T14:02:44.924Z,19.90
2018-05-18T14:05:19.927Z,20.95
2018-05-18T14:07:54.179Z,21.33
2018-05-18T14:10:29.147Z,16.83
2018-05-18T14:13:03.402Z,20.33
2018-05-18T14:15:37.612Z,21.55
2018-05-18T14:18:11.865Z,22.75
2018-05-18T14:20:46.845Z,20.25
2018-05-18T14:23:22.060Z,25.60
2018-05-18T14:25:56.279Z,22.45
2018-05-18T14:28:31.497Z,19.67
2018-05-18T14:31:05.725Z,19.37
2018-05-18T14:33:39.977Z,22.27
2018-05-18T14:36:15.161Z,23.67
2018-05-18T14:38:49.414Z,26.35
2018-05-18T14:41:23.619Z,21.35
2018-05-18T14:43:57.929Z,19.20
2018-05-18T14:46:34.021Z,21.95
2018-05-18T14:49:08.285Z,26.45
2018-05-18T14:51:43.453Z,24.80
2018-05-18T14:54:18.671Z,23.23
2018-05-18T14:56:53.870Z,22.58
2018-05-18T14:59:28.152Z,23.20
2018-05-18T15:02:03.384Z,22.13
2018-05-18T15:04:37.592Z,27.05
2018-05-18T15:07:11.853Z,19.83
2018-05-18T15:09:46.830Z,26.02
2018-05-18T15:12:22.032Z,23.10
2018-05-18T15:14:57.229Z,23.40
2018-05-18T15:17:31.478Z,26.50
2018-05-18T15:20:05.704Z,21.73
2018-05-18T15:22:39.986Z,20.23
2018-05-18T15:25:14.194Z,23.85
2018-05-18T15:27:48.442Z,20.88
2018-05-18T15:30:25.532Z,24.77
2018-05-18T15:32:59.785Z,22.50
2018-05-18T15:35:33.993Z,20.98
2018-05-18T15:38:08.244Z,20.98
2018-05-18T15:40:45.970Z,25.75
2018-05-18T15:46:06.427Z,22.83
2018-05-18T15:48:40.698Z,24.23
2018-05-18T15:51:14.900Z,25.92
2018-05-18T15:53:50.021Z,22.08
2018-05-18T15:56:25.017Z,24.90
2018-05-18T15:58:59.256Z,21.40
2018-05-18T16:01:33.489Z,31.15
2018-05-18T16:04:08.480Z,25.45
2018-05-18T16:06:42.746Z,27.85
2018-05-18T16:09:16.953Z,24.52
2018-05-18T16:11:51.964Z,21.33
2018-05-18T16:14:26.189Z,26.05
2018-05-18T16:17:02.194Z,22.45
2018-05-18T16:19:36.404Z,25.23
2018-05-18T16:22:10.650Z,21.15
2018-05-18T16:24:44.870Z,22.02
2018-05-18T16:27:20.123Z,20.62
2018-05-18T16:29:54.325Z,26.80
2018-05-18T16:32:28.573Z,22.85
2018-05-18T16:35:02.789Z,22.42
2018-05-18T16:37:37.031Z,19.60
2018-05-18T16:40:11.892Z,22.30
2018-05-18T16:42:46.334Z,21.42
2018-05-18T16:45:21.328Z,24.48
2018-05-18T16:47:55.577Z,23.98
2018-05-18T16:50:30.568Z,22.17
2018-05-18T16:53:04.809Z,25.17
2018-05-18T16:55:39.055Z,20.35
2018-05-18T16:58:13.460Z,19.75
2018-05-18T17:00:48.434Z,24.20
2018-05-18T17:03:23.676Z,24.23
2018-05-18T17:05:57.884Z,19.52
2018-05-18T17:08:33.104Z,19.98
2018-05-18T17:11:07.315Z,23.52
2018-05-18T17:13:41.565Z,21.37
2018-05-18T17:16:16.768Z,25.15
2018-05-18T17:18:51.974Z,23.27
2018-05-18T17:21:26.956Z,20.12
2018-05-18T17:24:01.211Z,22.65
2018-05-18T17:26:35.416Z,24.02
2018-05-18T17:29:09.663Z,21.40
2018-05-18T17:31:44.636Z,23.27
2018-05-18T17:34:18.876Z,26.60
2018-05-18T17:36:53.094Z,21.75
2018-05-18T17:39:28.317Z,20.90
2018-05-18T17:42:02.533Z,25.17
2018-05-18T17:44:36.785Z,24.17
2018-05-18T17:47:11.758Z,26.70
2018-05-18T17:49:46.005Z,27.95
2018-05-18T17:52:19.887Z,24.75
2018-05-18T17:54:55.123Z,24.52
2018-05-18T17:57:30.276Z,26.73
2018-05-18T18:00:03.843Z,29.25
2018-05-18T18:02:38.059Z,23.95
2018-05-18T18:05:12.306Z,26.42
2018-05-18T18:07:46.576Z,27.37
2018-05-18T18:10:21.935Z,28.05
2018-05-18T18:12:56.148Z,34.25
2018-05-18T18:15:30.399Z,30.90
2018-05-18T18:18:04.611Z,26.77
2018-05-18T18:20:39.817Z,24.02
2018-05-18T18:23:14.032Z,24.92
2018-05-18T18:25:49.265Z,36.30
2018-05-18T18:28:23.494Z,27.05
2018-05-18T18:30:57.782Z,28.08
2018-05-18T18:33:31.429Z,28.62
2018-05-18T18:36:04.796Z,28.63
2018-05-18T18:38:40.198Z,23.25
2018-05-18T18:41:16.181Z,26.92
2018-05-18T18:43:51.334Z,27.58
2018-05-18T18:46:25.565Z,30.65
2018-05-18T18:48:59.236Z,31.37
2018-05-18T18:51:34.426Z,25.60
2018-05-18T18:54:08.132Z,26.97
2018-05-18T18:56:41.941Z,31.90
2018-05-18T18:59:16.909Z,30.48
2018-05-18T19:01:50.599Z,25.47
2018-05-18T19:04:24.240Z,31.43
2018-05-18T19:06:57.922Z,19.97
2018-05-18T19:09:32.329Z,27.33
2018-05-18T19:12:06.017Z,24.30
2018-05-18T19:14:39.655Z,30.27
2018-05-18T19:17:14.105Z,28.97
2018-05-18T19:19:47.744Z,24.83
2018-05-18T19:22:21.426Z,30.70
2018-05-18T19:24:56.053Z,29.60
2018-05-18T19:27:29.741Z,27.17
2018-05-18T19:30:03.873Z,29.47
2018-05-18T19:32:37.559Z,26.00
2018-05-18T19:35:12.166Z,26.87
2018-05-18T19:37:46.830Z,25.57
2018-05-18T19:40:20.483Z,27.50
2018-05-18T19:42:54.188Z,26.23
2018-05-18T19:45:28.808Z,33.20
2018-05-18T19:48:02.488Z,28.83
2018-05-18T19:50:36.125Z,30.43
2018-05-18T19:53:09.844Z,25.67
2018-05-18T19:55:44.461Z,36.00
2018-05-18T19:58:18.172Z,23.50
2018-05-18T20:00:51.814Z,24.93
2018-05-18T20:03:27.299Z,30.30
2018-05-18T20:06:02.823Z,24.20
2018-05-18T20:08:36.508Z,31.47
2018-05-18T20:11:11.888Z,24.03
2018-05-18T20:13:46.552Z,26.20
2018-05-18T20:16:20.212Z,26.13
2018-05-18T20:18:54.159Z,29.90
2018-05-18T20:21:27.796Z,28.10
2018-05-18T20:24:01.474Z,25.93
2018-05-18T20:26:35.881Z,27.33
2018-05-18T20:29:09.557Z,23.70
2018-05-18T20:31:43.197Z,29.60
2018-05-18T20:34:17.638Z,32.63
2018-05-18T20:36:52.239Z,35.10
2018-05-18T20:39:27.649Z,34.23
2018-05-18T20:42:01.302Z,31.03
2018-05-18T20:44:35.968Z,29.90
2018-05-18T20:47:09.610Z,28.50
2018-05-18T20:49:43.288Z,32.03
2018-05-18T20:52:17.896Z,34.73
2018-05-18T20:54:52.541Z,24.90
2018-05-18T20:57:26.183Z,28.73
2018-05-18T21:00:00.853Z,33.37
2018-05-18T21:02:35.470Z,32.30
2018-05-18T21:05:09.147Z,34.40
2018-05-18T21:07:42.789Z,28.37
2018-05-18T21:10:16.459Z,29.10
2018-05-18T21:12:50.096Z,21.97
2018-05-18T21:15:24.732Z,29.03
2018-05-18T21:17:59.137Z,24.60
2018-05-18T21:20:32.845Z,26.90
2018-05-18T21:23:07.244Z,25.00
2018-05-18T21:25:40.923Z,28.67
2018-05-18T21:28:14.554Z,23.70
2018-05-18T21:30:48.232Z,27.33
2018-05-18T21:33:22.865Z,32.30
2018-05-18T21:35:57.212Z,32.37
2018-05-18T21:38:31.615Z,28.47
2018-05-18T21:41:05.313Z,28.57
2018-05-18T21:43:38.946Z,35.73
2018-05-18T21:46:13.586Z,26.93
2018-05-18T21:48:47.224Z,25.87
2018-05-18T21:51:20.905Z,27.67
2018-05-18T21:53:54.540Z,22.73
2018-05-18T21:56:28.219Z,33.43
2018-05-18T21:59:01.854Z,29.00
2018-05-18T22:01:36.299Z,29.23
2018-05-18T22:04:10.936Z,20.70
2018-05-18T22:06:44.613Z,26.87
2018-05-18T22:09:18.253Z,28.23
2018-05-18T22:11:51.920Z,34.97
2018-05-18T22:14:25.557Z,24.40
2018-05-18T22:16:59.239Z,28.70
2018-05-18T22:19:32.888Z,28.27
2018-05-18T22:22:06.576Z,28.67
2018-05-18T22:24:40.217Z,28.77
2018-05-18T22:27:15.624Z,29.97
2018-05-18T22:29:49.264Z,30.30
2018-05-18T22:32:22.945Z,30.43
2018-05-18T22:34:57.372Z,31.80
2018-05-18T22:37:31.838Z,31.20
2018-05-18T22:40:05.473Z,31.30
2018-05-18T22:42:39.161Z,29.93
2018-05-18T22:45:12.804Z,27.50
2018-05-18T22:47:46.479Z,30.73
2018-05-18T22:50:20.116Z,29.60
2018-05-18T22:52:53.799Z,26.10
2018-05-18T22:55:28.198Z,25.30
2018-05-18T22:58:02.854Z,35.83
2018-05-18T23:00:37.452Z,32.47
2018-05-18T23:03:11.910Z,31.47
2018-05-18T23:05:45.552Z,32.60
2018-05-18T23:08:19.250Z,35.23
2018-05-18T23:10:52.901Z,38.70
2018-05-18T23:13:26.772Z,33.27
2018-05-18T23:16:00.419Z,34.23
2018-05-18T23:18:50.411Z,28.30
2018-05-18T23:21:25.023Z,36.23
2018-05-18T23:24:00.043Z,36.57
2018-05-18T23:26:35.085Z,29.70
2018-05-18T23:29:08.780Z,32.27
2018-05-18T23:31:42.108Z,31.70
2018-05-18T23:34:17.616Z,29.07
2018-05-18T23:36:51.265Z,30.97
2018-05-18T23:39:26.489Z,29.23
2018-05-18T23:42:02.564Z,29.03
2018-05-18T23:44:39.912Z,30.00
2018-05-18T23:47:15.084Z,23.43
2018-05-18T23:49:48.765Z,28.37
2018-05-18T23:52:22.406Z,29.53
2018-05-18T23:54:57.166Z,29.77
2018-05-18T23:57:35.579Z,30.83
